Time;durP1;ratioP1;P1;durP2;ratioP2;P2;SDS_P1;SDS_P2;PMS_P1;PMS_P2;Temp;Humidity;BMP_temperature;BMP_pressure;BME280_temperature;BME280_humidity;BME280_pressure;Samples;Min_cycle;Max_cycle;Signal;HPM_P1;HPM_P2
2022/02/19 00:01:17;;;;;;;18.10;3.90;;;11.20;99.90;;;;;;5032291;28;20044;-67
2022/02/19 00:04:21;;;;;;;19.67;4.78;;;11.20;99.90;;;;;;5032420;28;20052;-67
2022/02/19 00:07:25;;;;;;;23.38;4.85;;;11.20;99.90;;;;;;5032144;28;20049;-67
2022/02/19 00:10:29;;;;;;;24.52;4.63;;;11.30;99.90;;;;;;5031251;28;20056;-67
2022/02/19 00:13:33;;;;;;;33.50;5.13;;;11.20;99.90;;;;;;5031948;28;20397;-66
2022/02/19 00:16:37;;;;;;;26.98;4.57;;;11.20;99.90;;;;;;5031590;28;20665;-67
2022/02/19 00:19:41;;;;;;;20.30;4.63;;;11.20;99.90;;;;;;5030593;28;20048;-67
2022/02/19 00:22:45;;;;;;;20.35;4.65;;;11.10;99.90;;;;;;5031221;28;20527;-67
2022/02/19 00:25:49;;;;;;;19.45;4.05;;;11.10;99.90;;;;;;5030811;28;20495;-66
2022/02/19 00:28:53;;;;;;;22.45;4.03;;;11.10;99.90;;;;;;5030608;28;20060;-67
2022/02/19 00:31:58;;;;;;;29.90;5.10;;;11.10;99.90;;;;;;5031335;28;20511;-67
2022/02/19 00:35:06;;;;;;;20.77;4.38;;;11.10;99.90;;;;;;5030801;28;20044;-67
2022/02/19 00:38:10;;;;;;;21.75;3.92;;;11.10;99.90;;;;;;5030217;28;20396;-67
2022/02/19 00:41:14;;;;;;;27.73;5.25;;;11.10;99.90;;;;;;5030392;28;20041;-67
2022/02/19 00:44:19;;;;;;;25.95;4.20;;;11.10;99.90;;;;;;5029822;28;20048;-67
2022/02/19 00:47:23;;;;;;;27.67;4.72;;;11.10;99.90;;;;;;5030313;28;20515;-67
2022/02/19 00:50:27;;;;;;;18.55;3.53;;;11.10;99.90;;;;;;5030661;28;20052;-67
2022/02/19 00:53:31;;;;;;;19.17;3.45;;;11.20;99.90;;;;;;5030241;28;20033;-67
2022/02/19 00:56:35;;;;;;;16.38;3.65;;;11.20;99.90;;;;;;5030601;28;20052;-67
2022/02/19 00:59:40;;;;;;;23.55;5.10;;;11.40;99.90;;;;;;5030018;28;20048;-67
2022/02/19 01:02:44;;;;;;;21.75;3.58;;;11.40;99.90;;;;;;5029881;28;20048;-67
2022/02/19 01:05:52;;;;;;;25.75;4.90;;;11.50;99.90;;;;;;5029361;28;20044;-67
2022/02/19 01:08:56;;;;;;;21.77;4.22;;;11.50;99.90;;;;;;5030296;28;20040;-67
2022/02/19 01:12:01;;;;;;;23.42;4.20;;;11.50;99.90;;;;;;5029921;28;20519;-68
2022/02/19 01:15:06;;;;;;;21.42;3.40;;;11.50;99.90;;;;;;5030277;28;20048;-67
2022/02/19 01:18:10;;;;;;;17.67;4.25;;;11.60;99.90;;;;;;5030294;28;20048;-67
2022/02/19 01:21:18;;;;;;;19.83;4.63;;;11.50;99.90;;;;;;5028702;28;20058;-68
2022/02/19 01:24:23;;;;;;;28.58;4.75;;;11.50;99.90;;;;;;5030084;28;20049;-67
2022/02/19 01:27:34;;;;;;;21.42;3.78;;;11.50;99.90;;;;;;5029612;28;20079;-67
2022/02/19 01:30:38;;;;;;;19.30;4.18;;;11.50;99.90;;;;;;5030873;28;20510;-68
2022/02/19 01:33:48;;;;;;;19.88;3.38;;;11.40;99.90;;;;;;5030007;28;20117;-67
2022/02/19 01:36:52;;;;;;;26.55;3.90;;;11.50;99.90;;;;;;5031450;28;20400;-67
2022/02/19 01:39:56;;;;;;;17.50;3.50;;;11.50;99.90;;;;;;5030564;28;20056;-67
2022/02/19 01:43:00;;;;;;;22.15;4.25;;;11.50;99.90;;;;;;5030415;28;20053;-67
2022/02/19 01:46:07;;;;;;;18.02;3.53;;;11.50;99.90;;;;;;5029612;28;20044;-67
2022/02/19 01:49:13;;;;;;;20.30;3.35;;;11.60;99.90;;;;;;5032909;28;20040;-67
2022/02/19 01:52:18;;;;;;;19.80;3.00;;;11.50;99.90;;;;;;5032666;28;20306;-67
2022/02/19 01:55:24;;;;;;;16.40;3.00;;;11.50;99.90;;;;;;5033324;28;20037;-67
2022/02/19 01:58:50;;;;;;;11.80;3.28;;;11.60;99.90;;;;;;5033174;28;20045;-67
2022/02/19 02:02:18;;;;;;;14.60;3.50;;;11.60;99.90;;;;;;5034523;28;20060;-67
2022/02/19 02:05:43;;;;;;;13.70;3.17;;;11.60;99.90;;;;;;5034025;28;20044;-67
2022/02/19 02:08:47;;;;;;;19.48;4.22;;;11.60;99.90;;;;;;5032295;28;20040;-67
2022/02/19 02:11:55;;;;;;;10.75;2.60;;;11.60;99.90;;;;;;5034148;28;20404;-67
2022/02/19 02:14:59;;;;;;;12.68;3.13;;;11.60;99.90;;;;;;5034289;28;20049;-67
2022/02/19 02:18:19;;;;;;;19.00;3.33;;;11.60;99.90;;;;;;5033827;28;20048;-67
2022/02/19 02:21:22;;;;;;;14.27;3.13;;;11.70;99.90;;;;;;5033466;28;20207;-67
2022/02/19 02:24:32;;;;;;;20.02;3.83;;;11.70;99.90;;;;;;5033171;28;20048;-67
2022/02/19 02:27:37;;;;;;;17.92;3.70;;;11.70;99.90;;;;;;5033401;28;20041;-67
2022/02/19 02:30:41;;;;;;;13.63;3.33;;;11.70;99.90;;;;;;5032884;28;20052;-68
2022/02/19 02:33:52;;;;;;;14.82;3.38;;;11.70;99.90;;;;;;5032553;28;20041;-67
2022/02/19 02:36:57;;;;;;;20.08;3.08;;;11.80;99.90;;;;;;5033141;28;20033;-67
2022/02/19 02:40:01;;;;;;;16.10;3.33;;;11.70;99.90;;;;;;5034397;28;20056;-67
2022/02/19 02:43:11;;;;;;;17.27;3.13;;;11.70;99.90;;;;;;5032765;28;20044;-67
2022/02/19 02:46:15;;;;;;;17.25;3.47;;;11.60;99.90;;;;;;5032461;28;20048;-67
2022/02/19 02:49:19;;;;;;;16.98;3.30;;;11.70;99.90;;;;;;5033597;28;20511;-68
2022/02/19 02:52:23;;;;;;;17.73;3.10;;;11.70;99.90;;;;;;5032652;28;20040;-67
2022/02/19 02:55:27;;;;;;;11.10;2.83;;;11.70;99.90;;;;;;5032457;28;20049;-67
2022/02/19 02:58:31;;;;;;;11.73;2.47;;;11.70;99.90;;;;;;5031715;28;20045;-67
2022/02/19 03:01:38;;;;;;;15.77;4.22;;;11.70;99.90;;;;;;5033177;28;20072;-67
2022/02/19 03:04:42;;;;;;;13.25;2.97;;;11.70;99.90;;;;;;5033589;28;20053;-67
2022/02/19 03:07:47;;;;;;;10.85;3.08;;;11.60;99.90;;;;;;5032224;28;20048;-67
2022/02/19 03:10:51;;;;;;;11.68;3.20;;;11.60;99.90;;;;;;5031993;28;20052;-67
2022/02/19 03:13:55;;;;;;;11.55;3.33;;;11.50;99.90;;;;;;5033166;28;20053;-67
2022/02/19 03:16:59;;;;;;;17.05;3.63;;;11.50;99.90;;;;;;5020680;28;20105;-67
2022/02/19 03:20:05;;;;;;;14.00;3.90;;;11.50;99.90;;;;;;5031517;28;20056;-67
2022/02/19 03:23:11;;;;;;;12.77;3.90;;;11.40;99.90;;;;;;5031705;28;20048;-66
2022/02/19 03:26:15;;;;;;;19.10;4.90;;;11.30;99.90;;;;;;5031569;28;20045;-67
2022/02/19 03:29:20;;;;;;;16.88;4.70;;;11.10;99.90;;;;;;5030880;28;20045;-67
2022/02/19 03:32:27;;;;;;;13.15;4.95;;;11.00;99.90;;;;;;5030829;28;20052;-67
2022/02/19 03:35:32;;;;;;;11.70;4.15;;;11.00;99.90;;;;;;5032187;28;20056;-68
2022/02/19 03:38:36;;;;;;;36.90;6.65;;;10.90;99.90;;;;;;5030434;28;20060;-67
2022/02/19 03:41:43;;;;;;;20.75;5.25;;;10.90;99.90;;;;;;5031957;28;20655;-67
2022/02/19 03:44:49;;;;;;;14.38;5.10;;;10.80;99.90;;;;;;5030823;28;20068;-67
2022/02/19 03:47:56;;;;;;;14.70;4.65;;;10.70;99.90;;;;;;5030686;28;20048;-67
2022/02/19 03:51:00;;;;;;;15.43;4.78;;;10.80;99.90;;;;;;5030346;28;20045;-66
2022/02/19 03:54:05;;;;;;;17.15;4.22;;;10.80;99.90;;;;;;5018819;28;20048;-67
2022/02/19 03:57:10;;;;;;;16.08;4.90;;;10.90;99.90;;;;;;5030328;28;20508;-67
2022/02/19 04:00:14;;;;;;;12.00;4.20;;;10.90;99.90;;;;;;5029630;28;20052;-67
2022/02/19 04:03:21;;;;;;;11.65;3.58;;;10.90;99.90;;;;;;5032481;28;20044;-67
2022/02/19 04:06:26;;;;;;;18.48;4.45;;;10.90;99.90;;;;;;5031201;28;20043;-67
2022/02/19 04:09:31;;;;;;;15.30;5.13;;;10.90;99.90;;;;;;5030585;28;20392;-67
2022/02/19 04:12:35;;;;;;;13.95;4.70;;;10.80;99.90;;;;;;5031030;28;20064;-67
2022/02/19 04:15:41;;;;;;;10.38;4.18;;;10.90;99.90;;;;;;5030418;28;20041;-67
2022/02/19 04:18:45;;;;;;;13.63;4.03;;;10.90;99.90;;;;;;5029618;28;20040;-67
2022/02/19 04:21:51;;;;;;;20.35;4.55;;;11.00;99.90;;;;;;5030114;28;20392;-67
2022/02/19 04:24:58;;;;;;;12.48;4.78;;;11.00;99.90;;;;;;5030527;28;20049;-67
2022/02/19 04:28:09;;;;;;;12.43;4.78;;;11.00;99.90;;;;;;5029735;28;20056;-67
2022/02/19 04:31:13;;;;;;;14.95;4.85;;;11.00;99.90;;;;;;5030370;28;20036;-67
2022/02/19 04:34:17;;;;;;;17.65;4.65;;;11.00;99.90;;;;;;5030407;28;20048;-66
2022/02/19 04:37:22;;;;;;;9.80;4.32;;;11.10;99.90;;;;;;5032750;28;20400;-67
2022/02/19 04:40:25;;;;;;;10.07;3.72;;;11.10;99.90;;;;;;5030255;28;20048;-67
2022/02/19 04:43:29;;;;;;;9.05;4.38;;;11.10;99.90;;;;;;5030380;28;20040;-67
2022/02/19 04:46:33;;;;;;;14.10;4.40;;;11.10;99.90;;;;;;5030058;28;20048;-67
2022/02/19 04:49:38;;;;;;;16.23;4.10;;;11.20;99.90;;;;;;5029735;28;20052;-67
2022/02/19 04:52:45;;;;;;;14.32;4.82;;;11.20;99.90;;;;;;5030792;28;20032;-67
2022/02/19 04:55:52;;;;;;;12.93;4.28;;;11.20;99.90;;;;;;5030430;28;20043;-67
2022/02/19 04:59:00;;;;;;;12.95;4.30;;;11.20;99.90;;;;;;5029723;28;20123;-67
2022/02/19 05:02:09;;;;;;;13.23;3.95;;;11.30;99.90;;;;;;5030213;28;20036;-67
2022/02/19 05:05:17;;;;;;;16.10;4.95;;;11.40;99.90;;;;;;5030095;28;20045;-67
2022/02/19 05:08:26;;;;;;;17.40;3.53;;;11.40;99.90;;;;;;5029300;28;20049;-67
2022/02/19 05:11:30;;;;;;;10.93;3.70;;;11.40;99.90;;;;;;5029735;28;20037;-67
2022/02/19 05:14:36;;;;;;;12.23;3.45;;;11.40;99.90;;;;;;5029492;28;20045;-67
2022/02/19 05:17:52;;;;;;;9.27;3.35;;;11.40;99.90;;;;;;5029734;28;20048;-67
2022/02/19 05:20:57;;;;;;;8.57;3.58;;;11.40;99.90;;;;;;5029468;28;20044;-67
2022/02/19 05:24:04;;;;;;;7.45;3.15;;;11.40;99.90;;;;;;5032205;28;20057;-67
2022/02/19 05:27:16;;;;;;;15.13;3.58;;;11.30;99.90;;;;;;5033479;28;20049;-67
2022/02/19 05:30:21;;;;;;;18.25;3.58;;;11.30;99.90;;;;;;5033146;28;20048;-67
2022/02/19 05:33:46;;;;;;;13.18;3.90;;;11.40;99.90;;;;;;5035063;28;20044;-67
2022/02/19 05:36:50;;;;;;;15.18;3.45;;;11.40;99.90;;;;;;5035546;28;20505;-67
2022/02/19 05:39:55;;;;;;;13.15;3.53;;;11.40;99.90;;;;;;5034039;28;20052;-67
2022/02/19 05:43:01;;;;;;;10.18;3.28;;;11.40;99.90;;;;;;5033784;28;20452;-67
2022/02/19 05:46:07;;;;;;;12.55;3.25;;;11.50;99.90;;;;;;5034553;28;20056;-67
2022/02/19 05:49:12;;;;;;;13.32;3.33;;;11.50;99.90;;;;;;5033410;28;20068;-67
2022/02/19 05:52:48;;;;;;;15.93;3.25;;;11.40;99.90;;;;;;5034578;28;20052;-67
2022/02/19 05:56:06;;;;;;;15.50;3.40;;;11.40;99.90;;;;;;5021476;28;20067;-67
2022/02/19 05:59:11;;;;;;;13.70;3.22;;;11.30;99.90;;;;;;5020844;28;20045;-67
2022/02/19 06:02:16;;;;;;;10.90;4.07;;;11.30;99.90;;;;;;5021433;28;20045;-67
2022/02/19 06:05:19;;;;;;;14.05;5.57;;;11.20;99.90;;;;;;5032432;28;20040;-67
2022/02/19 06:08:26;;;;;;;15.32;3.70;;;11.20;99.90;;;;;;5032934;28;20396;-67
2022/02/19 06:11:30;;;;;;;13.82;3.60;;;11.10;99.90;;;;;;5033102;28;20044;-67
2022/02/19 06:14:50;;;;;;;9.93;3.72;;;11.10;99.90;;;;;;5032230;28;20048;-67
2022/02/19 06:17:56;;;;;;;10.27;3.13;;;11.00;99.90;;;;;;5032086;28;20040;-67
2022/02/19 06:21:00;;;;;;;10.30;3.10;;;11.00;99.90;;;;;;5032160;28;20056;-68
2022/02/19 06:24:14;;;;;;;7.43;2.67;;;11.00;99.90;;;;;;5032308;28;20056;-67
2022/02/19 06:27:18;;;;;;;14.05;4.10;;;11.10;99.90;;;;;;5032768;28;20048;-68
2022/02/19 06:30:37;;;;;;;10.25;3.20;;;11.10;99.90;;;;;;5032162;28;20037;-68
2022/02/19 06:33:46;;;;;;;15.70;3.60;;;11.20;99.90;;;;;;5032356;28;20054;-68
2022/02/19 06:36:50;;;;;;;13.25;2.88;;;11.30;99.90;;;;;;5032315;28;20056;-68
2022/02/19 06:40:00;;;;;;;15.80;4.38;;;11.30;99.90;;;;;;5031926;28;20120;-67
2022/02/19 06:43:10;;;;;;;10.43;3.03;;;11.30;99.90;;;;;;5031582;28;20041;-68
2022/02/19 06:46:18;;;;;;;8.00;2.70;;;11.40;99.90;;;;;;5031209;28;20048;-68
2022/02/19 06:49:23;;;;;;;9.07;2.83;;;11.50;99.90;;;;;;5031365;28;20523;-67
2022/02/19 06:52:32;;;;;;;11.70;3.20;;;11.50;99.90;;;;;;5032263;28;20239;-67
2022/02/19 06:55:36;;;;;;;11.43;3.17;;;11.60;99.90;;;;;;5032899;28;20060;-68
2022/02/19 06:58:43;;;;;;;12.55;3.25;;;11.70;99.90;;;;;;5031200;28;20389;-68
2022/02/19 07:01:48;;;;;;;8.27;2.53;;;11.70;99.90;;;;;;5031453;28;20056;-68
2022/02/19 07:04:51;;;;;;;12.98;2.85;;;11.80;99.90;;;;;;5032119;28;20491;-67
2022/02/19 07:07:56;;;;;;;11.82;2.75;;;11.90;99.90;;;;;;5032586;28;20048;-67
2022/02/19 07:11:00;;;;;;;9.02;2.92;;;12.00;99.90;;;;;;5033217;28;20052;-67
2022/02/19 07:14:04;;;;;;;11.43;2.90;;;12.10;99.90;;;;;;5031586;28;20475;-68
2022/02/19 07:17:09;;;;;;;14.45;3.33;;;12.20;99.90;;;;;;5031435;28;20048;-68
2022/02/19 07:20:14;;;;;;;9.38;3.42;;;12.20;99.90;;;;;;5031690;28;20053;-68
2022/02/19 07:23:21;;;;;;;12.32;3.30;;;12.30;99.90;;;;;;5031420;28;20052;-68
2022/02/19 07:26:25;;;;;;;13.02;2.95;;;12.30;99.90;;;;;;5031003;28;20504;-67
2022/02/19 07:29:31;;;;;;;10.40;2.78;;;12.30;99.90;;;;;;5030899;28;20060;-68
2022/02/19 07:32:36;;;;;;;9.30;2.88;;;12.40;99.90;;;;;;5030604;28;20041;-68
2022/02/19 07:35:44;;;;;;;7.90;2.85;;;12.40;99.90;;;;;;5031133;28;20072;-67
2022/02/19 07:38:48;;;;;;;14.77;3.05;;;12.50;99.90;;;;;;5019726;28;20416;-68
2022/02/19 07:41:52;;;;;;;13.88;3.60;;;12.70;99.90;;;;;;5031604;28;20060;-68
2022/02/19 07:44:57;;;;;;;9.60;4.22;;;12.90;99.90;;;;;;5032174;28;20129;-68
2022/02/19 07:48:25;;;;;;;12.10;4.63;;;12.80;99.90;;;;;;5034964;28;20056;-68
2022/02/19 07:58:39;;;;;;;13.52;3.40;;;12.60;99.90;;;;;;5030421;28;20048;-67
2022/02/19 08:01:45;;;;;;;10.07;3.75;;;12.70;99.90;;;;;;5030585;28;20037;-68
2022/02/19 08:04:49;;;;;;;15.85;4.45;;;12.60;99.90;;;;;;5031001;28;20405;-68
2022/02/19 08:07:53;;;;;;;15.93;5.40;;;12.80;99.90;;;;;;5030290;28;20056;-68
2022/02/19 08:10:57;;;;;;;19.85;5.40;;;12.90;99.90;;;;;;5030128;28;20037;-68
2022/02/19 08:14:01;;;;;;;16.27;5.60;;;12.80;99.90;;;;;;5031509;28;20043;-67
2022/02/19 08:17:05;;;;;;;11.95;4.30;;;12.70;99.90;;;;;;5030966;28;20056;-67
2022/02/19 08:20:09;;;;;;;8.68;3.63;;;12.60;99.90;;;;;;5031573;28;20056;-67
2022/02/19 08:23:16;;;;;;;21.23;6.53;;;12.80;99.90;;;;;;5031495;28;20049;-67
2022/02/19 08:26:27;;;;;;;16.80;6.60;;;13.00;99.90;;;;;;5031652;28;20103;-68
2022/02/19 08:29:31;;;;;;;18.02;5.35;;;12.80;99.90;;;;;;5030310;28;20036;-68
2022/02/19 08:32:35;;;;;;;8.60;3.97;;;12.90;99.90;;;;;;5030997;28;20040;-68
2022/02/19 08:35:41;;;;;;;13.70;4.28;;;13.10;99.90;;;;;;5030929;28;20036;-68
2022/02/19 08:38:45;;;;;;;9.82;3.58;;;13.10;99.90;;;;;;5030712;28;20048;-68
2022/02/19 08:41:49;;;;;;;15.77;4.32;;;13.30;99.90;;;;;;5031221;28;20045;-68
2022/02/19 08:44:53;;;;;;;12.02;3.70;;;13.40;99.90;;;;;;5030722;28;20040;-68
2022/02/19 08:48:04;;;;;;;13.13;4.60;;;13.20;99.90;;;;;;5030778;28;20049;-68
2022/02/19 08:51:09;;;;;;;11.07;3.95;;;13.30;99.90;;;;;;5031423;28;20049;-67
2022/02/19 08:54:13;;;;;;;10.23;3.60;;;13.40;99.90;;;;;;5031370;28;20052;-69
2022/02/19 08:57:17;;;;;;;11.43;3.28;;;13.60;99.90;;;;;;5030224;28;20048;-68
2022/02/19 09:00:21;;;;;;;10.57;3.00;;;13.80;99.90;;;;;;5030192;28;20049;-68
2022/02/19 09:03:25;;;;;;;10.38;2.90;;;13.80;99.90;;;;;;5030258;28;20052;-68
2022/02/19 09:06:30;;;;;;;15.15;3.63;;;13.70;99.90;;;;;;5030885;28;20393;-69
2022/02/19 09:09:36;;;;;;;11.80;3.72;;;13.70;99.90;;;;;;5030060;28;20048;-67
2022/02/19 09:12:46;;;;;;;8.35;3.65;;;13.20;99.90;;;;;;5030470;28;20191;-67
2022/02/19 09:15:50;;;;;;;7.93;3.22;;;13.20;99.90;;;;;;5030218;28;20048;-67
2022/02/19 09:18:54;;;;;;;15.70;3.85;;;12.80;99.90;;;;;;5030114;28;20060;-67
2022/02/19 09:21:58;;;;;;;12.38;4.40;;;13.20;99.90;;;;;;5030193;28;20048;-68
2022/02/19 09:25:03;;;;;;;10.07;3.70;;;13.30;99.90;;;;;;5030324;28;20060;-68
2022/02/19 09:28:07;;;;;;;12.32;4.05;;;13.30;99.90;;;;;;5029407;28;20086;-67
2022/02/19 09:31:11;;;;;;;19.98;4.05;;;13.20;99.90;;;;;;5029022;28;20064;-67
2022/02/19 09:34:15;;;;;;;10.30;3.38;;;13.10;99.90;;;;;;5030364;28;20057;-68
2022/02/19 09:37:20;;;;;;;12.07;3.80;;;13.40;99.90;;;;;;5030367;28;20056;-67
2022/02/19 09:40:23;;;;;;;11.00;3.78;;;13.60;99.90;;;;;;5030579;28;20056;-68
2022/02/19 09:43:28;;;;;;;11.05;3.35;;;13.60;99.90;;;;;;5029574;28;20052;-67
2022/02/19 09:46:32;;;;;;;15.35;4.25;;;13.70;99.90;;;;;;5030266;28;20384;-68
2022/02/19 09:49:39;;;;;;;15.35;4.25;;;13.70;99.90;;;;;;5029662;28;20044;-67
2022/02/19 09:52:44;;;;;;;17.42;4.75;;;13.70;99.90;;;;;;5029119;28;20029;-67
2022/02/19 09:55:48;;;;;;;17.75;4.57;;;13.60;99.90;;;;;;5029969;28;20072;-68
2022/02/19 09:58:51;;;;;;;13.13;3.70;;;13.70;99.90;;;;;;5030363;28;20048;-68
2022/02/19 10:02:04;;;;;;;10.93;4.22;;;13.50;99.90;;;;;;5030591;28;20055;-68
2022/02/19 10:05:12;;;;;;;7.78;3.03;;;13.50;99.90;;;;;;5029913;28;20054;-68
2022/02/19 10:08:17;;;;;;;10.45;3.08;;;13.50;99.90;;;;;;5029437;28;20060;-68
2022/02/19 10:11:20;;;;;;;8.88;3.20;;;13.40;99.90;;;;;;5033442;28;20492;-67
2022/02/19 10:14:31;;;;;;;8.85;2.95;;;13.40;99.90;;;;;;5033692;28;20041;-67
2022/02/19 10:17:37;;;;;;;10.63;3.95;;;13.50;99.90;;;;;;5033382;28;20408;-68
2022/02/19 10:20:41;;;;;;;11.88;3.78;;;13.50;99.90;;;;;;5033359;28;20073;-68
2022/02/19 10:23:56;;;;;;;13.38;3.33;;;13.50;99.90;;;;;;5033665;28;20056;-68
2022/02/19 10:26:59;;;;;;;13.73;4.05;;;13.60;99.90;;;;;;5033542;28;20041;-68
2022/02/19 10:30:05;;;;;;;12.50;4.07;;;13.70;99.90;;;;;;5032593;28;20513;-68
2022/02/19 10:33:12;;;;;;;10.77;3.25;;;13.90;99.90;;;;;;5032682;28;20049;-68
2022/02/19 10:36:21;;;;;;;9.23;3.38;;;13.80;99.90;;;;;;5032541;28;20052;-67
2022/02/19 10:39:30;;;;;;;12.35;3.83;;;13.70;99.90;;;;;;5032301;28;20036;-68
2022/02/19 10:42:35;;;;;;;13.80;4.53;;;13.80;99.90;;;;;;5032485;28;20048;-68
2022/02/19 10:46:01;;;;;;;13.50;4.70;;;13.70;99.90;;;;;;5032939;28;20048;-67
2022/02/19 10:49:13;;;;;;;13.60;4.43;;;13.90;99.90;;;;;;5031852;28;20045;-68
2022/02/19 10:52:17;;;;;;;10.45;3.95;;;14.00;99.90;;;;;;5033033;28;20036;-68
2022/02/19 10:55:26;;;;;;;7.75;3.13;;;14.20;99.90;;;;;;5032488;28;20048;-68
2022/02/19 10:58:30;;;;;;;8.45;3.38;;;14.30;99.90;;;;;;5032152;28;20044;-67
2022/02/19 11:01:52;;;;;;;12.70;3.75;;;14.50;99.90;;;;;;5032768;28;20044;-69
2022/02/19 11:04:56;;;;;;;10.77;3.70;;;14.50;99.90;;;;;;5032422;28;20416;-68
2022/02/19 11:08:01;;;;;;;14.63;4.13;;;14.40;99.90;;;;;;5031718;28;20044;-67
2022/02/19 11:11:05;;;;;;;11.30;3.28;;;14.50;99.90;;;;;;5032540;28;20048;-68
2022/02/19 11:14:11;;;;;;;11.63;4.00;;;14.70;99.90;;;;;;5032948;28;20044;-68
2022/02/19 11:17:15;;;;;;;10.52;3.97;;;14.70;99.90;;;;;;5032718;28;20048;-67
2022/02/19 11:20:23;;;;;;;11.18;2.97;;;14.60;99.90;;;;;;5031402;28;20546;-68
2022/02/19 11:23:29;;;;;;;9.27;2.40;;;14.50;99.90;;;;;;5032657;28;20052;-68
2022/02/19 11:26:33;;;;;;;11.23;4.00;;;14.40;99.90;;;;;;5032569;28;20412;-68
2022/02/19 11:29:38;;;;;;;11.20;3.05;;;14.10;99.90;;;;;;5032231;28;20056;-68
2022/02/19 11:32:43;;;;;;;7.13;3.08;;;14.10;99.90;;;;;;5032569;28;20040;-68
2022/02/19 11:35:48;;;;;;;12.70;3.22;;;14.10;99.90;;;;;;5031667;28;20052;-68
2022/02/19 11:38:53;;;;;;;12.30;3.15;;;14.10;99.90;;;;;;5031427;28;20056;-68
2022/02/19 11:41:57;;;;;;;11.43;3.83;;;14.10;99.90;;;;;;5031513;28;20040;-68
2022/02/19 11:45:26;;;;;;;11.18;3.17;;;14.10;99.90;;;;;;5029069;28;20396;-68
2022/02/19 11:48:30;;;;;;;10.50;3.72;;;14.30;99.90;;;;;;5030056;28;20432;-67
2022/02/19 11:51:33;;;;;;;9.18;3.00;;;14.30;99.90;;;;;;5019054;28;20503;-68
2022/02/19 11:54:37;;;;;;;10.88;3.03;;;14.50;99.90;;;;;;5031512;28;20041;-68
2022/02/19 11:57:42;;;;;;;9.85;3.42;;;14.50;99.90;;;;;;5031340;28;20060;-68
2022/02/19 12:00:49;;;;;;;10.55;3.40;;;14.60;99.90;;;;;;5031032;28;20044;-68
2022/02/19 12:04:13;;;;;;;8.55;3.42;;;14.70;99.90;;;;;;5030857;28;20056;-67
2022/02/19 12:07:17;;;;;;;11.25;3.92;;;14.70;99.90;;;;;;5030570;28;20053;-68
2022/02/19 12:10:21;;;;;;;8.77;3.10;;;14.80;99.90;;;;;;5030508;28;20043;-68
2022/02/19 12:13:44;;;;;;;8.25;3.30;;;14.80;99.90;;;;;;5031436;28;20404;-68
2022/02/19 12:16:49;;;;;;;11.20;3.20;;;15.00;99.90;;;;;;5031214;28;20392;-67
2022/02/19 12:19:59;;;;;;;10.70;2.80;;;15.20;99.90;;;;;;5029752;28;20044;-68
2022/02/19 12:23:06;;;;;;;14.13;3.80;;;15.50;99.90;;;;;;5030447;28;20045;-68
2022/02/19 12:26:10;;;;;;;9.35;3.00;;;15.00;99.90;;;;;;5030454;28;20056;-68
2022/02/19 12:29:41;;;;;;;12.68;3.08;;;14.90;99.90;;;;;;5029643;28;20044;-68
2022/02/19 12:32:58;;;;;;;14.07;3.10;;;15.10;99.90;;;;;;5028565;28;20036;-68
2022/02/19 12:36:07;;;;;;;8.27;3.00;;;15.00;99.90;;;;;;5030540;28;20060;-68
2022/02/19 12:39:12;;;;;;;11.90;3.00;;;14.40;99.90;;;;;;5029933;28;20037;-68
2022/02/19 12:42:25;;;;;;;11.55;5.00;;;14.50;99.90;;;;;;5030559;28;20052;-68
2022/02/19 12:45:33;;;;;;;15.35;3.55;;;14.40;99.90;;;;;;5030407;28;20048;-68
2022/02/19 12:48:37;;;;;;;13.55;4.68;;;14.60;99.90;;;;;;5029929;28;20121;-68
2022/02/19 12:51:41;;;;;;;10.05;3.33;;;14.30;99.90;;;;;;5018070;28;20037;-68
2022/02/19 12:54:45;;;;;;;11.75;3.33;;;14.50;99.90;;;;;;5031002;28;20056;-68
2022/02/19 12:57:51;;;;;;;10.88;2.90;;;14.70;99.90;;;;;;5030820;28;20049;-68
2022/02/19 13:00:56;;;;;;;11.43;3.38;;;15.00;99.90;;;;;;5029796;28;20400;-67
2022/02/19 13:04:01;;;;;;;9.48;3.13;;;15.10;99.90;;;;;;5031057;28;20044;-68
2022/02/19 13:07:07;;;;;;;10.65;3.75;;;14.60;99.90;;;;;;5030199;28;20116;-68
2022/02/19 13:10:17;;;;;;;14.30;3.88;;;14.70;99.90;;;;;;5029593;28;20393;-67
2022/02/19 13:13:22;;;;;;;12.20;3.88;;;14.90;99.90;;;;;;5030639;28;20061;-68
2022/02/19 13:16:26;;;;;;;8.88;3.47;;;14.90;99.90;;;;;;5030211;28;20045;-68
2022/02/19 13:19:34;;;;;;;9.50;3.05;;;15.00;99.90;;;;;;5030015;28;20052;-67
2022/02/19 13:22:40;;;;;;;11.90;2.85;;;15.00;99.90;;;;;;5030284;28;20134;-66
2022/02/19 13:25:44;;;;;;;13.45;3.58;;;15.00;99.90;;;;;;5029919;28;20520;-66
2022/02/19 13:28:55;;;;;;;84.35;45.47;;;15.00;99.90;;;;;;5029453;28;20389;-67
2022/02/19 13:32:01;;;;;;;10.13;2.83;;;15.00;99.90;;;;;;5028390;28;20044;-66
2022/02/19 13:35:07;;;;;;;10.63;3.65;;;15.10;99.90;;;;;;5029864;28;20650;-66
2022/02/19 13:38:12;;;;;;;14.35;5.20;;;15.20;99.90;;;;;;5029287;28;20057;-66
2022/02/19 13:41:16;;;;;;;10.48;4.47;;;15.30;99.90;;;;;;5028576;28;20040;-67
2022/02/19 13:44:22;;;;;;;11.38;4.88;;;15.30;99.90;;;;;;5030943;28;20503;-66
2022/02/19 13:47:28;;;;;;;13.50;4.47;;;15.30;99.90;;;;;;5033278;28;20068;-67
2022/02/19 13:50:35;;;;;;;24.20;16.52;;;15.50;99.90;;;;;;5033264;28;20064;-67
2022/02/19 13:53:40;;;;;;;14.90;5.57;;;15.50;99.90;;;;;;5033223;28;20056;-66
2022/02/19 13:56:45;;;;;;;12.00;4.68;;;15.40;99.90;;;;;;5033624;28;20052;-67
2022/02/19 14:00:02;;;;;;;10.93;5.20;;;15.50;99.90;;;;;;5033355;28;20040;-67
2022/02/19 14:03:16;;;;;;;15.73;5.90;;;15.50;99.90;;;;;;5033265;28;20064;-66
2022/02/19 14:06:27;;;;;;;17.60;4.38;;;15.30;99.90;;;;;;5033402;28;20117;-66
2022/02/19 14:09:32;;;;;;;10.75;5.03;;;15.30;99.90;;;;;;5032339;28;20335;-66
2022/02/19 14:12:39;;;;;;;13.73;5.22;;;15.40;99.90;;;;;;5033223;28;20048;-66
2022/02/19 14:15:46;;;;;;;13.02;4.93;;;15.50;99.90;;;;;;5033381;28;20044;-66
2022/02/19 14:19:00;;;;;;;12.70;5.10;;;15.30;99.90;;;;;;5032919;28;20546;-66
2022/02/19 14:22:09;;;;;;;14.15;4.93;;;15.10;99.90;;;;;;5032977;28;20048;-66
2022/02/19 14:25:17;;;;;;;12.02;4.50;;;15.20;99.90;;;;;;5033561;28;20052;-66
2022/02/19 14:28:23;;;;;;;13.93;5.38;;;15.10;99.90;;;;;;5032903;28;20041;-67
2022/02/19 14:31:27;;;;;;;12.82;3.63;;;15.00;99.90;;;;;;5030779;28;20041;-67
2022/02/19 14:34:31;;;;;;;11.30;3.55;;;14.90;99.90;;;;;;5033405;28;20060;-67
2022/02/19 14:37:35;;;;;;;10.35;4.03;;;15.00;99.90;;;;;;5033201;28;20044;-66
2022/02/19 14:40:39;;;;;;;14.75;4.63;;;15.10;99.90;;;;;;5032990;28;20109;-66
2022/02/19 14:43:42;;;;;;;23.75;10.48;;;15.10;99.90;;;;;;5033338;28;20044;-66
2022/02/19 14:46:46;;;;;;;26.05;13.48;;;15.20;99.90;;;;;;5033046;28;20505;-66
2022/02/19 14:49:51;;;;;;;16.98;7.32;;;15.20;99.90;;;;;;5031943;28;20033;-66
2022/02/19 14:52:55;;;;;;;14.05;4.97;;;15.20;99.90;;;;;;5032615;28;20095;-69
2022/02/19 14:55:58;;;;;;;12.45;6.18;;;15.10;99.90;;;;;;5030849;28;20040;-66
2022/02/19 14:59:03;;;;;;;13.65;4.20;;;15.00;99.90;;;;;;5031680;28;20045;-69
2022/02/19 15:02:07;;;;;;;13.13;3.80;;;15.00;99.90;;;;;;5031888;28;20048;-68
2022/02/19 15:05:12;;;;;;;11.10;4.07;;;14.90;99.90;;;;;;5032475;28;20060;-67
2022/02/19 15:08:16;;;;;;;13.85;5.80;;;14.80;99.90;;;;;;5032240;28;20064;-67
2022/02/19 15:11:21;;;;;;;22.45;6.15;;;14.80;99.90;;;;;;5031966;28;20052;-66
2022/02/19 15:14:25;;;;;;;13.57;4.20;;;14.90;99.90;;;;;;5032504;28;20037;-66
2022/02/19 15:17:29;;;;;;;12.63;4.53;;;14.90;99.90;;;;;;5032273;28;20420;-66
2022/02/19 15:20:34;;;;;;;12.32;4.45;;;15.00;99.90;;;;;;5031907;28;20396;-66
2022/02/19 15:23:38;;;;;;;10.35;4.15;;;15.00;99.90;;;;;;5031997;28;20044;-67
2022/02/19 15:26:42;;;;;;;19.15;6.65;;;15.00;99.90;;;;;;5032347;28;20408;-66
2022/02/19 15:29:51;;;;;;;17.60;6.35;;;14.90;99.90;;;;;;5031389;28;20048;-66
2022/02/19 15:32:56;;;;;;;15.75;5.65;;;14.60;99.90;;;;;;5031666;28;20199;-66
2022/02/19 15:36:01;;;;;;;12.68;5.80;;;14.80;99.90;;;;;;5031625;28;20041;-66
2022/02/19 15:39:05;;;;;;;14.55;4.05;;;14.80;99.90;;;;;;5031383;28;20057;-67
2022/02/19 15:42:09;;;;;;;13.30;3.80;;;14.90;99.90;;;;;;5032303;28;20064;-66
2022/02/19 15:45:13;;;;;;;19.23;7.97;;;14.80;99.90;;;;;;5031593;28;20055;-66
2022/02/19 15:48:17;;;;;;;33.83;16.40;;;14.70;99.90;;;;;;5031122;28;20044;-66
2022/02/19 15:51:21;;;;;;;38.17;20.27;;;14.70;99.90;;;;;;5032012;28;20041;-66
2022/02/19 15:54:25;;;;;;;26.95;14.65;;;14.50;99.90;;;;;;5031662;28;20045;-66
2022/02/19 15:57:29;;;;;;;17.33;7.65;;;14.50;99.90;;;;;;5031368;28;20044;-68
2022/02/19 16:00:33;;;;;;;26.50;12.20;;;14.40;99.90;;;;;;5031555;28;20224;-68
2022/02/19 16:03:38;;;;;;;16.15;7.43;;;14.40;99.90;;;;;;5031048;28;20040;-68
2022/02/19 16:06:44;;;;;;;29.52;14.35;;;14.30;99.90;;;;;;5030681;28;20045;-68